createdAt,value
2022-09-14T00:02:55.906Z,99678.50
2022-09-14T00:07:59.803Z,99683.47
2022-09-14T00:13:02.299Z,99678.72
2022-09-14T00:18:05.715Z,99676.59
2022-09-14T00:23:09.575Z,99662.06
2022-09-14T00:28:12.343Z,99665.56
2022-09-14T00:33:15.151Z,99660.03
2022-09-14T00:38:18.964Z,99660.56
2022-09-14T00:43:21.452Z,99648.00
2022-09-14T00:48:26.769Z,99637.28
2022-09-14T00:53:31.578Z,99626.41
2022-09-14T00:58:34.209Z,99629.25
2022-09-14T01:03:36.884Z,99629.59
2022-09-14T01:08:54.368Z,99635.06
2022-09-14T01:14:04.024Z,99633.47
2022-09-14T01:19:11.386Z,99640.50
2022-09-14T01:24:27.907Z,99642.91
2022-09-14T01:29:34.786Z,99652.81
2022-09-14T01:34:45.390Z,99640.88
2022-09-14T01:39:53.037Z,99635.94
2022-09-14T01:45:01.203Z,99635.53
2022-09-14T01:50:08.803Z,99642.19
2022-09-14T01:55:17.964Z,99646.38
2022-09-14T02:00:23.181Z,99639.97
2022-09-14T02:05:31.790Z,99632.22
2022-09-14T02:10:34.916Z,99623.91
2022-09-14T02:15:40.063Z,99617.84
2022-09-14T02:20:48.038Z,99613.75
2022-09-14T02:25:50.753Z,99612.50
2022-09-14T02:31:04.754Z,99608.13
2022-09-14T02:36:17.099Z,99607.09
2022-09-14T02:41:31.467Z,99603.50
2022-09-14T02:46:38.078Z,99596.47
2022-09-14T02:51:47.154Z,99595.44
2022-09-14T02:56:50.231Z,99600.19
2022-09-14T03:01:54.151Z,99593.97
2022-09-14T03:06:56.825Z,99593.38
2022-09-14T03:11:59.317Z,99589.44
2022-09-14T03:17:03.107Z,99585.66
2022-09-14T03:22:05.632Z,99580.94
2022-09-14T03:27:08.122Z,99581.72
2022-09-14T03:32:12.411Z,99574.66
2022-09-14T03:37:15.122Z,99576.06
2022-09-14T03:42:17.628Z,99567.38
2022-09-14T03:47:21.329Z,99568.03
2022-09-14T03:52:23.866Z,99567.34
2022-09-14T03:57:26.566Z,99561.59
2022-09-14T04:02:30.476Z,99559.00
2022-09-14T04:07:33.364Z,99564.75
2022-09-14T04:12:36.392Z,99543.97
2022-09-14T04:17:40.958Z,99538.31
2022-09-14T04:22:43.490Z,99540.25
2022-09-14T04:28:04.192Z,99536.28
2022-09-14T04:33:12.982Z,99536.53
2022-09-14T04:38:15.428Z,99536.75
2022-09-14T04:43:17.867Z,99534.09
2022-09-14T04:48:21.771Z,99538.19
2022-09-14T04:53:24.549Z,99548.44
2022-09-14T04:58:33.419Z,99549.94
2022-09-14T05:03:38.931Z,99541.88
2022-09-14T05:08:42.192Z,99548.19
2022-09-14T05:13:49.494Z,99552.56
2022-09-14T05:18:55.673Z,99533.72
2022-09-14T05:23:59.916Z,99528.75
2022-09-14T05:29:03.282Z,99528.75
2022-09-14T05:34:07.230Z,99529.31
2022-09-14T05:39:10.309Z,99527.00
2022-09-14T05:44:12.736Z,99532.31
2022-09-14T05:49:16.504Z,99529.31
2022-09-14T05:54:19.181Z,99538.34
2022-09-14T05:59:21.627Z,99529.47
2022-09-14T06:04:25.703Z,99530.69
2022-09-14T06:09:33.102Z,99516.78
2022-09-14T06:14:35.971Z,99515.91
2022-09-14T06:19:39.740Z,99522.22
2022-09-14T06:24:42.340Z,99511.06
2022-09-14T06:29:44.884Z,99510.59
2022-09-14T06:34:48.625Z,99513.53
2022-09-14T06:39:51.198Z,99516.75
2022-09-14T06:44:53.681Z,99516.47
2022-09-14T06:49:58.010Z,99516.09
2022-09-14T06:55:00.448Z,99512.44
2022-09-14T07:00:04.035Z,99510.75
2022-09-14T07:05:08.547Z,99524.63
2022-09-14T07:10:11.849Z,99520.13
2022-09-14T07:15:14.598Z,99515.69
2022-09-14T07:20:19.110Z,99523.00
2022-09-14T07:25:21.595Z,99519.13
2022-09-14T07:30:24.974Z,99520.22
2022-09-14T07:35:28.820Z,99516.63
2022-09-14T07:40:31.906Z,99519.28
2022-09-14T07:45:36.166Z,99518.97
2022-09-14T07:50:40.191Z,99528.38
2022-09-14T07:55:43.175Z,99526.56
2022-09-14T08:00:45.666Z,99530.59
2022-09-14T08:05:49.681Z,99524.72
2022-09-14T08:10:52.124Z,99517.69
2022-09-14T08:15:54.605Z,99518.56
2022-09-14T08:21:03.542Z,99513.25
2022-09-14T08:26:07.386Z,99517.59
2022-09-14T08:31:12.516Z,99506.69
2022-09-14T08:36:18.274Z,99508.50
2022-09-14T08:41:28.883Z,99512.06
2022-09-14T08:46:34.164Z,99509.94
2022-09-14T08:51:37.970Z,99502.56
2022-09-14T08:56:44.787Z,99503.78
2022-09-14T09:01:55.514Z,99500.22
2022-09-14T09:07:06.465Z,99496.31
2022-09-14T09:12:15.729Z,99494.97
2022-09-14T09:17:22.786Z,99495.34
2022-09-14T09:22:30.105Z,99492.41
2022-09-14T09:27:32.821Z,99494.63
2022-09-14T09:32:37.514Z,99489.22
2022-09-14T09:37:41.767Z,99484.28
2022-09-14T09:43:02.783Z,99476.59
2022-09-14T09:48:10.616Z,99457.50
2022-09-14T09:53:17.178Z,99460.03
2022-09-14T09:58:28.776Z,99459.09
2022-09-14T10:03:35.405Z,99461.28
2022-09-14T10:08:44.513Z,99458.66
2022-09-14T10:13:48.520Z,99458.34
2022-09-14T10:18:53.599Z,99453.97
2022-09-14T10:24:07.358Z,99448.81
2022-09-14T10:29:27.072Z,99462.28
2022-09-14T10:34:30.378Z,99463.78
2022-09-14T10:39:40.759Z,99468.25
2022-09-14T10:44:55.332Z,99461.03
2022-09-14T10:50:12.427Z,99448.34
2022-09-14T10:55:34.489Z,99454.69
2022-09-14T11:00:44.827Z,99459.72
2022-09-14T11:05:54.475Z,99452.88
2022-09-14T11:11:15.759Z,99452.38
2022-09-14T11:16:38.321Z,99450.84
2022-09-14T11:21:50.307Z,99446.28
2022-09-14T11:27:02.892Z,99447.19
2022-09-14T11:32:20.925Z,99449.94
2022-09-14T11:37:33.086Z,99436.28
2022-09-14T11:42:44.629Z,99426.53
2022-09-14T11:47:54.549Z,99416.09
2022-09-14T11:53:04.934Z,99419.31
2022-09-14T11:58:17.450Z,99418.31
2022-09-14T12:03:21.582Z,99428.75
2022-09-14T12:08:28.849Z,99421.66
2022-09-14T12:13:33.075Z,99404.63
2022-09-14T12:18:37.022Z,99412.38
2022-09-14T12:23:45.098Z,99403.81
2022-09-14T12:28:50.807Z,99408.91
2022-09-14T12:34:18.721Z,99412.47
2022-09-14T12:39:23.591Z,99408.09
2022-09-14T12:44:36.394Z,99420.56
2022-09-14T12:49:39.062Z,99415.78
2022-09-14T12:54:52.834Z,99402.56
2022-09-14T13:00:04.907Z,99407.59
2022-09-14T13:05:14.698Z,99389.50
2022-09-14T13:10:20.853Z,99384.56
2022-09-14T13:15:27.875Z,99377.34
2022-09-14T13:20:32.085Z,99366.00
2022-09-14T13:25:39.156Z,99366.53
2022-09-14T13:30:43.241Z,99357.53
2022-09-14T13:35:48.838Z,99352.16
2022-09-14T13:40:55.135Z,99355.75
2022-09-14T13:45:59.332Z,99342.00
2022-09-14T13:51:01.775Z,99350.38
2022-09-14T13:56:31.512Z,99347.50
2022-09-14T14:01:39.610Z,99350.28
2022-09-14T14:06:42.207Z,99346.16
2022-09-14T14:11:52.365Z,99337.13
2022-09-14T14:17:24.873Z,99340.69
2022-09-14T14:22:29.565Z,99344.31
2022-09-14T14:27:35.221Z,99346.72
2022-09-14T14:32:39.165Z,99325.47
2022-09-14T14:37:41.852Z,99326.75
2022-09-14T14:42:45.322Z,99320.59
2022-09-14T14:47:50.882Z,99319.81
2022-09-14T14:52:53.855Z,99301.78
2022-09-14T14:58:00.547Z,99295.59
2022-09-14T15:03:04.776Z,99294.47
2022-09-14T15:08:07.136Z,99288.94
2022-09-14T15:13:11.838Z,99283.28
2022-09-14T15:18:15.551Z,99269.63
2022-09-14T15:23:18.267Z,99283.09
2022-09-14T15:28:20.847Z,99279.56
2022-09-14T15:33:24.976Z,99284.31
2022-09-14T15:38:27.512Z,99286.28
2022-09-14T15:43:30.219Z,99283.47
2022-09-14T15:48:36.323Z,99269.06
2022-09-14T15:53:39.481Z,99272.25
2022-09-14T15:58:47.246Z,99260.13
2022-09-14T16:03:57.272Z,99265.28
2022-09-14T16:09:01.699Z,99257.78
2022-09-14T16:14:05.462Z,99252.38
2022-09-14T16:19:11.616Z,99242.97
2022-09-14T16:24:16.551Z,99221.84
2022-09-14T16:29:21.117Z,99230.34
2022-09-14T16:34:27.235Z,99227.88
2022-09-14T16:39:31.749Z,99229.09
2022-09-14T16:44:34.305Z,99228.44
2022-09-14T16:49:39.389Z,99216.00
2022-09-14T16:54:42.166Z,99221.78
2022-09-14T16:59:44.586Z,99244.13
2022-09-14T17:04:48.751Z,99232.03
2022-09-14T17:09:51.327Z,99228.13
2022-09-14T17:14:53.810Z,99222.47
2022-09-14T17:19:57.579Z,99211.34
2022-09-14T17:25:00.099Z,99191.31
2022-09-14T17:30:02.608Z,99201.50
2022-09-14T17:35:07.948Z,99201.28
2022-09-14T17:40:11.434Z,99192.34
2022-09-14T17:45:14.142Z,99203.47
2022-09-14T17:50:19.614Z,99209.78
2022-09-14T17:55:22.389Z,99203.88
2022-09-14T18:00:24.831Z,99196.44
2022-09-14T18:05:29.204Z,99192.38
2022-09-14T18:10:31.833Z,99199.50
2022-09-14T18:15:38.275Z,99205.88
2022-09-14T18:20:44.203Z,99206.16
2022-09-14T18:25:46.642Z,99219.16
2022-09-14T18:30:51.609Z,99216.84
2022-09-14T18:35:56.034Z,99217.19
2022-09-14T18:41:04.887Z,99221.16
2022-09-14T18:46:08.649Z,99219.34
2022-09-14T18:51:15.385Z,99236.03
2022-09-14T18:56:19.101Z,99248.56
2022-09-14T19:01:21.801Z,99241.22
2022-09-14T19:06:26.140Z,99256.31
2022-09-14T19:11:31.010Z,99247.53
2022-09-14T19:16:33.699Z,99243.53
2022-09-14T19:21:37.644Z,99239.56
2022-09-14T19:26:45.697Z,99238.53
2022-09-14T19:31:51.837Z,99235.19
2022-09-14T19:36:56.401Z,99214.63
2022-09-14T19:41:59.092Z,99232.53
2022-09-14T19:47:02.000Z,99234.72
2022-09-14T19:52:05.937Z,99247.53
2022-09-14T19:57:08.377Z,99255.34
2022-09-14T20:02:11.686Z,99242.19
2022-09-14T20:07:15.658Z,99265.06
2022-09-14T20:12:18.138Z,99261.06
2022-09-14T20:17:20.597Z,99267.34
2022-09-14T20:22:24.826Z,99269.53
2022-09-14T20:27:27.435Z,99274.22
2022-09-14T20:32:31.222Z,99281.88
2022-09-14T20:37:35.268Z,99277.88
2022-09-14T20:42:37.829Z,99269.03
2022-09-14T20:47:40.253Z,99280.72
2022-09-14T20:52:43.995Z,99294.22
2022-09-14T20:57:46.437Z,99296.34
2022-09-14T21:02:52.021Z,99291.91
2022-09-14T21:07:56.766Z,99304.63
2022-09-14T21:12:59.305Z,99312.53
2022-09-14T21:18:02.076Z,99311.97
2022-09-14T21:23:06.366Z,99315.38
2022-09-14T21:28:08.784Z,99321.31
2022-09-14T21:33:11.335Z,99314.56
2022-09-14T21:38:15.164Z,99316.84
2022-09-14T21:43:17.644Z,99321.31
2022-09-14T21:48:20.466Z,99325.00
2022-09-14T21:53:24.235Z,99327.84
2022-09-14T21:58:27.015Z,99331.41
2022-09-14T22:03:30.314Z,99322.69
2022-09-14T22:08:36.013Z,99328.47
2022-09-14T22:13:39.238Z,99309.19
2022-09-14T22:18:47.520Z,99316.78
2022-09-14T22:23:52.882Z,99319.78
2022-09-14T22:28:55.894Z,99311.50
2022-09-14T22:33:59.345Z,99304.50
2022-09-14T22:39:04.814Z,99289.91
2022-09-14T22:44:08.384Z,99283.66
2022-09-14T22:49:11.221Z,99295.56
2022-09-14T22:54:14.978Z,99297.19
2022-09-14T22:59:17.443Z,99305.88
2022-09-14T23:04:19.896Z,99305.41
2022-09-14T23:09:23.611Z,99314.38
2022-09-14T23:14:26.534Z,99321.25
2022-09-14T23:19:29.984Z,99320.00
2022-09-14T23:24:33.849Z,99327.50
2022-09-14T23:29:36.252Z,99339.44
2022-09-14T23:34:38.671Z,99312.41
2022-09-14T23:39:42.756Z,99336.97
2022-09-14T23:44:45.302Z,99342.53
2022-09-14T23:49:47.955Z,99314.34
2022-09-14T23:54:51.726Z,99319.16
2022-09-14T23:59:54.131Z,99317.09
